Time;durP1;ratioP1;P1;durP2;ratioP2;P2;SDS_P1;SDS_P2;PMS_P1;PMS_P2;Temp;Humidity;BMP_temperature;BMP_pressure;BME280_temperature;BME280_humidity;BME280_pressure;Samples;Min_cycle;Max_cycle;Signal;HPM_P1;HPM_P2
2022/11/03 00:00:07;;;;;;;;;;;22.00;36.50;;;;;;5067022;28;19920;-72
2022/11/03 00:02:35;;;;;;;;;;;21.90;36.40;;;;;;5063480;28;19927;-73
2022/11/03 00:06:03;;;;;;;;;;;21.90;36.50;;;;;;5061900;28;19955;-73
2022/11/03 00:07:49;;;;;;;;;;;21.80;36.40;;;;;;5080227;28;19920;-72
2022/11/03 00:10:16;;;;;;;;;;;21.70;36.80;;;;;;5064426;28;19973;-73
2022/11/03 00:12:43;;;;;;;;;;;21.70;36.60;;;;;;5079646;28;19943;-73
2022/11/03 00:15:09;;;;;;;;;;;21.70;36.50;;;;;;5079911;28;19920;-72
2022/11/03 00:17:38;;;;;;;;;;;21.60;36.70;;;;;;5064341;28;19920;-72
2022/11/03 00:20:05;;;;;;;;;;;21.60;37.00;;;;;;5060917;28;19920;-72
2022/11/03 00:22:33;;;;;;;;;;;21.50;36.90;;;;;;5062231;28;20022;-72
2022/11/03 00:25:00;;;;;;;;;;;21.50;37.40;;;;;;5059357;28;19921;-73
2022/11/03 00:27:27;;;;;;;;;;;21.50;37.00;;;;;;5082061;28;20014;-71
2022/11/03 00:29:53;;;;;;;;;;;21.50;37.10;;;;;;5063488;28;19975;-71
2022/11/03 00:32:20;;;;;;;;;;;21.40;37.00;;;;;;5062861;28;19942;-68
2022/11/03 00:34:48;;;;;;;;;;;21.40;37.00;;;;;;5079615;28;19987;-71
2022/11/03 00:37:15;;;;;;;;;;;21.30;37.10;;;;;;5063763;28;20007;-73
2022/11/03 00:39:42;;;;;;;;;;;21.30;36.80;;;;;;5062349;28;19921;-71
2022/11/03 00:42:08;;;;;;;;;;;21.30;36.90;;;;;;5062018;28;19920;-72
2022/11/03 00:44:35;;;;;;;;;;;21.20;36.80;;;;;;5065733;28;19974;-72
2022/11/03 00:47:07;;;;;;;;;;;21.30;36.90;;;;;;5061951;28;19932;-71
2022/11/03 00:49:34;;;;;;;;;;;21.20;37.50;;;;;;5058627;28;19942;-71
2022/11/03 00:52:04;;;;;;;;;;;21.20;36.90;;;;;;5066710;28;19975;-73
2022/11/03 00:54:31;;;;;;;;;;;21.20;36.90;;;;;;5078491;28;19920;-71
2022/11/03 00:56:58;;;;;;;;;;;21.20;37.00;;;;;;5061054;28;19943;-70
2022/11/03 00:59:25;;;;;;;;;;;21.10;37.00;;;;;;5076609;28;19928;-71
2022/11/03 01:01:51;;;;;;;;;;;21.10;37.10;;;;;;5063718;28;19966;-71
2022/11/03 01:07:06;;;;;;;;;;;21.10;37.20;;;;;;5054938;28;19933;-72
2022/11/03 01:09:36;;;;;;;;;;;21.10;37.30;;;;;;5061884;28;19921;-71
2022/11/03 01:12:04;;;;;;;;;;;21.00;37.20;;;;;;5065118;28;19998;-72
2022/11/03 01:14:31;;;;;;;;;;;21.00;37.30;;;;;;5079368;28;19920;-71
2022/11/03 01:16:58;;;;;;;;;;;21.00;37.30;;;;;;5062189;28;19921;-71
2022/11/03 01:19:27;;;;;;;;;;;21.00;37.30;;;;;;5068066;28;19942;-71
2022/11/03 01:21:55;;;;;;;;;;;21.00;37.40;;;;;;5071294;28;19968;-73
2022/11/03 01:24:23;;;;;;;;;;;21.00;37.40;;;;;;5061362;28;19920;-72
2022/11/03 01:26:49;;;;;;;;;;;20.90;37.30;;;;;;5062355;28;19920;-72
2022/11/03 01:29:16;;;;;;;;;;;20.90;37.30;;;;;;5062807;28;19928;-72
2022/11/03 01:31:43;;;;;;;;;;;20.90;37.40;;;;;;5048284;28;19934;-73
2022/11/03 01:34:14;;;;;;;;;;;20.90;37.50;;;;;;5077874;28;19974;-72
2022/11/03 01:36:41;;;;;;;;;;;20.90;37.50;;;;;;5080719;28;19921;-72
2022/11/03 01:39:09;;;;;;;;;;;20.90;37.60;;;;;;5057788;28;19935;-72
2022/11/03 01:41:37;;;;;;;;;;;20.80;37.50;;;;;;5063420;28;19962;-72
2022/11/03 01:44:22;;;;;;;;;;;20.90;37.60;;;;;;5071427;28;19926;-72
2022/11/03 01:46:51;;;;;;;;;;;20.80;37.50;;;;;;5075679;28;19971;-72
2022/11/03 01:49:19;;;;;;;;;;;20.80;37.60;;;;;;5074653;28;19924;-72
2022/11/03 01:51:46;;;;;;;;;;;20.80;37.60;;;;;;5079326;28;19938;-71
2022/11/03 01:54:12;;;;;;;;;;;20.80;37.70;;;;;;5061097;28;19920;-73
2022/11/03 01:56:45;;;;;;;;;;;20.70;37.60;;;;;;5061613;28;20274;-71
2022/11/03 01:59:12;;;;;;;;;;;20.80;37.70;;;;;;5061668;28;19926;-72
2022/11/03 02:01:38;;;;;;;;;;;20.70;37.70;;;;;;5061880;28;19920;-72
2022/11/03 02:04:26;;;;;;;;;;;20.70;37.70;;;;;;5075770;28;19947;-72
2022/11/03 02:07:06;;;;;;;;;;;20.70;37.70;;;;;;5060621;28;19927;-71
2022/11/03 02:09:33;;;;;;;;;;;20.70;37.70;;;;;;5059657;28;19982;-71
2022/11/03 02:12:07;;;;;;;;;;;20.70;37.80;;;;;;5063100;28;19980;-72
2022/11/03 02:14:34;;;;;;;;;;;20.70;37.80;;;;;;5078479;28;19951;-73
2022/11/03 02:17:02;;;;;;;;;;;20.70;37.80;;;;;;5062166;28;19987;-73
2022/11/03 02:19:31;;;;;;;;;;;20.60;37.80;;;;;;5059922;28;19921;-72
2022/11/03 02:21:59;;;;;;;;;;;20.70;37.90;;;;;;5061318;28;19939;-73
2022/11/03 02:24:27;;;;;;;;;;;20.60;37.90;;;;;;5061532;28;19932;-72
2022/11/03 02:26:55;;;;;;;;;;;20.60;37.90;;;;;;5063119;28;20007;-71
2022/11/03 02:29:22;;;;;;;;;;;20.60;37.90;;;;;;5060866;28;19966;-71
2022/11/03 02:31:49;;;;;;;;;;;20.60;38.00;;;;;;5079302;28;19924;-71
2022/11/03 02:34:16;;;;;;;;;;;20.60;37.90;;;;;;5062510;28;20412;-71
2022/11/03 02:36:45;;;;;;;;;;;20.60;38.00;;;;;;5061969;28;19920;-73
2022/11/03 02:39:12;;;;;;;;;;;20.60;38.00;;;;;;5061743;28;20251;-72
2022/11/03 02:41:39;;;;;;;;;;;20.60;38.00;;;;;;5062280;28;19950;-72
2022/11/03 02:44:07;;;;;;;;;;;20.60;38.00;;;;;;5061924;28;19948;-71
2022/11/03 02:46:34;;;;;;;;;;;20.50;37.90;;;;;;5061825;28;19992;-71
2022/11/03 02:49:01;;;;;;;;;;;20.50;38.00;;;;;;5061575;28;19920;-72
2022/11/03 02:51:29;;;;;;;;;;;20.50;38.00;;;;;;5079004;28;19955;-72
2022/11/03 02:53:59;;;;;;;;;;;20.50;38.10;;;;;;5062109;28;20313;-72
2022/11/03 02:56:26;;;;;;;;;;;20.50;38.10;;;;;;5057534;28;19921;-72
2022/11/03 02:58:55;;;;;;;;;;;20.50;38.10;;;;;;5069731;28;19950;-72
2022/11/03 03:03:59;;;;;;;;;;;20.50;38.20;;;;;;5867884;22;19929;-65
2022/11/03 03:06:26;;;;;;;;;;;20.50;38.20;;;;;;4970123;28;19925;-64
2022/11/03 03:08:54;;;;;;;;;;;20.50;38.20;;;;;;5002487;28;19925;-64
2022/11/03 03:11:35;;;;;;;;;;;20.40;38.10;;;;;;4980063;28;19953;-64
2022/11/03 03:14:03;;;;;;;;;;;20.50;38.30;;;;;;4989477;28;20443;-64
2022/11/03 03:16:34;;;;;;;;;;;20.40;38.20;;;;;;4987626;28;19930;-64
2022/11/03 03:19:03;;;;;;;;;;;20.40;38.20;;;;;;4982394;28;20370;-64
2022/11/03 03:21:32;;;;;;;;;;;20.40;38.20;;;;;;4986924;28;19969;-64
2022/11/03 03:24:00;;;;;;;;;;;20.40;38.30;;;;;;4973296;28;19964;-65
2022/11/03 03:26:28;;;;;;;;;;;20.40;38.30;;;;;;4972424;28;20126;-64
2022/11/03 03:28:56;;;;;;;;;;;20.40;38.30;;;;;;4977321;28;19926;-64
2022/11/03 03:31:23;;;;;;;;;;;20.40;38.30;;;;;;4994522;28;19926;-65
2022/11/03 03:33:49;;;;;;;;;;;20.40;38.40;;;;;;4977040;28;20025;-64
2022/11/03 03:36:18;;;;;;;;;;;20.40;38.40;;;;;;4991934;28;19926;-64
2022/11/03 03:38:46;;;;;;;;;;;20.40;38.40;;;;;;4971981;28;19930;-64
2022/11/03 03:41:20;;;;;;;;;;;20.40;38.40;;;;;;4975264;28;20028;-63
2022/11/03 03:43:47;;;;;;;;;;;20.40;38.50;;;;;;4993561;28;19949;-64
2022/11/03 03:46:14;;;;;;;;;;;20.40;38.50;;;;;;4976931;28;19972;-63
2022/11/03 03:48:41;;;;;;;;;;;20.30;38.40;;;;;;4969693;28;19926;-64
2022/11/03 03:51:08;;;;;;;;;;;20.30;38.40;;;;;;4998028;28;19933;-65
2022/11/03 03:53:36;;;;;;;;;;;20.30;39.00;;;;;;4994727;28;20016;-64
2022/11/03 03:56:04;;;;;;;;;;;20.30;38.40;;;;;;4996149;28;20008;-64
2022/11/03 03:58:31;;;;;;;;;;;20.30;38.50;;;;;;4977265;28;19941;-64
2022/11/03 04:00:57;;;;;;;;;;;20.30;38.50;;;;;;4986093;28;19926;-65
2022/11/03 04:03:24;;;;;;;;;;;20.30;38.50;;;;;;4994860;28;20051;-64
2022/11/03 04:05:51;;;;;;;;;;;20.30;38.50;;;;;;4983987;28;19965;-64
2022/11/03 04:08:18;;;;;;;;;;;20.30;38.50;;;;;;4994773;28;19980;-64
2022/11/03 04:22:15;;;;;;;;;;;20.30;38.60;;;;;;4977150;28;19964;-64
2022/11/03 04:24:30;;;;;;;;;;;20.30;38.70;;;;;;4975665;28;19957;-64
2022/11/03 04:27:00;;;;;;;;;;;20.30;38.70;;;;;;4993583;28;20020;-64
2022/11/03 04:29:28;;;;;;;;;;;20.30;38.70;;;;;;4974905;28;19932;-64
2022/11/03 04:31:55;;;;;;;;;;;20.30;38.70;;;;;;4975419;28;20383;-65
2022/11/03 04:34:22;;;;;;;;;;;20.30;38.70;;;;;;4974431;28;19926;-64
2022/11/03 04:36:49;;;;;;;;;;;20.30;38.70;;;;;;4990684;28;19965;-65
2022/11/03 04:39:19;;;;;;;;;;;20.30;38.70;;;;;;4975832;28;20018;-64
2022/11/03 04:41:46;;;;;;;;;;;20.30;38.70;;;;;;4974128;28;19926;-64
2022/11/03 04:44:15;;;;;;;;;;;20.20;38.70;;;;;;4974854;28;19926;-64
2022/11/03 04:46:41;;;;;;;;;;;20.20;38.70;;;;;;4974776;28;19926;-64
2022/11/03 04:49:10;;;;;;;;;;;20.30;38.80;;;;;;4976831;28;19926;-64
2022/11/03 04:51:37;;;;;;;;;;;20.20;38.70;;;;;;4975253;28;20040;-65
2022/11/03 04:54:06;;;;;;;;;;;20.20;38.80;;;;;;4988682;28;20021;-65
2022/11/03 04:56:33;;;;;;;;;;;20.20;38.80;;;;;;4993312;28;19925;-65
2022/11/03 04:59:00;;;;;;;;;;;20.20;38.80;;;;;;4973651;28;19926;-64
2022/11/03 05:01:28;;;;;;;;;;;20.20;38.80;;;;;;4992339;28;19926;-65
2022/11/03 05:03:55;;;;;;;;;;;20.20;38.80;;;;;;4975814;28;19961;-64
2022/11/03 05:06:22;;;;;;;;;;;20.20;38.90;;;;;;4978594;28;19926;-65
2022/11/03 05:08:49;;;;;;;;;;;20.20;38.90;;;;;;4992128;28;19936;-64
2022/11/03 05:11:17;;;;;;;;;;;20.20;38.90;;;;;;4977240;28;19973;-64
2022/11/03 05:13:44;;;;;;;;;;;20.20;38.90;;;;;;4991064;28;20392;-65
2022/11/03 05:16:11;;;;;;;;;;;20.20;39.00;;;;;;4974978;28;20400;-65
2022/11/03 05:18:39;;;;;;;;;;;20.20;39.00;;;;;;4992815;28;19929;-64
2022/11/03 05:21:06;;;;;;;;;;;20.20;39.00;;;;;;4981935;28;19930;-64
2022/11/03 05:23:36;;;;;;;;;;;20.20;39.00;;;;;;4968907;28;19926;-64
2022/11/03 05:26:03;;;;;;;;;;;20.20;39.00;;;;;;4988125;28;19975;-65
2022/11/03 05:28:33;;;;;;;;;;;20.20;39.00;;;;;;4987107;28;19952;-65
2022/11/03 05:31:00;;;;;;;;;;;20.20;39.00;;;;;;4987156;28;19953;-65
2022/11/03 05:33:28;;;;;;;;;;;20.20;39.00;;;;;;4989279;28;20026;-65
2022/11/03 05:35:58;;;;;;;;;;;20.20;39.10;;;;;;4974996;28;19932;-64
2022/11/03 05:38:25;;;;;;;;;;;20.20;39.10;;;;;;4992132;28;20002;-65
2022/11/03 05:40:52;;;;;;;;;;;20.20;39.60;;;;;;4990056;28;20050;-64
2022/11/03 05:43:19;;;;;;;;;;;20.20;39.10;;;;;;4991292;28;19926;-64
2022/11/03 05:45:46;;;;;;;;;;;20.20;39.10;;;;;;4986502;28;19930;-65
2022/11/03 05:48:14;;;;;;;;;;;20.10;39.00;;;;;;4990725;28;20402;-65
2022/11/03 05:50:40;;;;;;;;;;;20.10;39.00;;;;;;4971176;28;19929;-64
2022/11/03 05:53:21;;;;;;;;;;;20.10;39.10;;;;;;4974475;28;19934;-65
2022/11/03 05:55:48;;;;;;;;;;;20.10;39.10;;;;;;4990925;28;20016;-64
2022/11/03 05:58:15;;;;;;;;;;;20.10;39.10;;;;;;4974144;28;19980;-64
2022/11/03 06:00:42;;;;;;;;;;;20.10;39.70;;;;;;4988618;28;19926;-64
2022/11/03 06:03:09;;;;;;;;;;;20.10;39.10;;;;;;4973088;28;19925;-64
2022/11/03 06:05:36;;;;;;;;;;;20.10;39.10;;;;;;4988213;28;19930;-64
2022/11/03 06:08:03;;;;;;;;;;;20.10;39.10;;;;;;4991370;28;19933;-64
2022/11/03 06:10:32;;;;;;;;;;;20.10;39.20;;;;;;4972320;28;19978;-65
2022/11/03 06:12:59;;;;;;;;;;;20.10;39.20;;;;;;4973327;28;20418;-64
2022/11/03 06:15:28;;;;;;;;;;;20.10;39.20;;;;;;4984557;28;19930;-65
2022/11/03 06:17:55;;;;;;;;;;;20.10;39.20;;;;;;4956270;28;19985;-64
2022/11/03 06:20:24;;;;;;;;;;;20.10;39.10;;;;;;4986164;28;19926;-65
2022/11/03 06:22:51;;;;;;;;;;;20.10;39.10;;;;;;4971666;28;19926;-65
2022/11/03 06:25:20;;;;;;;;;;;20.10;39.10;;;;;;4991981;28;19925;-65
2022/11/03 06:27:48;;;;;;;;;;;20.10;39.20;;;;;;4989433;28;20343;-64
2022/11/03 06:30:19;;;;;;;;;;;20.10;38.80;;;;;;4989664;28;19977;-64
2022/11/03 06:32:46;;;;;;;;;;;20.10;39.30;;;;;;4986959;28;19936;-64
2022/11/03 06:35:13;;;;;;;;;;;20.10;39.20;;;;;;4999273;28;20045;-64
2022/11/03 06:37:40;;;;;;;;;;;20.10;39.20;;;;;;4993371;28;19925;-63
2022/11/03 06:40:27;;;;;;;;;;;20.10;39.30;;;;;;5009970;28;19929;-64
2022/11/03 06:42:57;;;;;;;;;;;20.10;39.30;;;;;;4974714;28;19972;-64
2022/11/03 06:45:24;;;;;;;;;;;20.10;39.40;;;;;;4994284;28;19926;-64
2022/11/03 06:47:51;;;;;;;;;;;20.10;39.40;;;;;;4994295;28;19987;-64
2022/11/03 06:50:19;;;;;;;;;;;20.10;39.40;;;;;;4983757;28;19957;-64
2022/11/03 06:52:46;;;;;;;;;;;20.10;39.40;;;;;;4990419;28;19969;-64
2022/11/03 06:55:22;;;;;;;;;;;20.10;39.50;;;;;;4993535;28;20310;-64
2022/11/03 06:57:48;;;;;;;;;;;20.10;39.50;;;;;;4997050;28;19932;-64
2022/11/03 07:00:19;;;;;;;;;;;20.10;39.50;;;;;;4979671;28;20028;-64
2022/11/03 07:02:52;;;;;;;;;;;20.10;39.50;;;;;;4995611;28;19932;-65
2022/11/03 07:05:21;;;;;;;;;;;20.10;39.50;;;;;;4994019;28;19969;-65
2022/11/03 07:07:47;;;;;;;;;;;20.10;39.50;;;;;;4981636;28;19948;-65
2022/11/03 07:10:14;;;;;;;;;;;20.10;39.60;;;;;;4998162;28;20000;-64
2022/11/03 07:12:41;;;;;;;;;;;20.10;39.60;;;;;;4998936;28;19956;-64
2022/11/03 07:15:12;;;;;;;;;;;20.10;39.60;;;;;;4970759;28;19930;-65
2022/11/03 07:17:40;;;;;;;;;;;20.10;39.60;;;;;;4992751;28;19926;-64
2022/11/03 07:20:09;;;;;;;;;;;20.10;39.60;;;;;;4971136;28;19930;-64
2022/11/03 07:22:35;;;;;;;;;;;20.10;39.60;;;;;;4988459;28;19926;-64
2022/11/03 07:25:02;;;;;;;;;;;20.10;39.60;;;;;;4994430;28;20280;-65
2022/11/03 07:27:29;;;;;;;;;;;20.10;39.60;;;;;;4976934;28;19961;-65
2022/11/03 07:29:57;;;;;;;;;;;20.10;39.70;;;;;;4993262;28;19925;-65
2022/11/03 07:32:24;;;;;;;;;;;20.10;39.70;;;;;;5012572;28;20024;-64
2022/11/03 07:34:52;;;;;;;;;;;20.10;39.60;;;;;;4979808;28;19929;-65
2022/11/03 07:37:20;;;;;;;;;;;20.10;39.70;;;;;;4977083;28;19926;-64
2022/11/03 07:39:47;;;;;;;;;;;20.00;39.70;;;;;;4978957;28;19930;-64
2022/11/03 07:42:14;;;;;;;;;;;20.10;39.60;;;;;;4978048;28;19926;-65
2022/11/03 07:44:41;;;;;;;;;;;20.10;39.60;;;;;;4999357;28;19926;-64
2022/11/03 07:47:10;;;;;;;;;;;20.10;39.60;;;;;;4978952;28;19969;-66
2022/11/03 07:49:37;;;;;;;;;;;20.10;39.60;;;;;;4994073;28;20005;-64
2022/11/03 07:52:07;;;;;;;;;;;20.10;39.50;;;;;;4984257;28;20379;-64
2022/11/03 07:54:34;;;;;;;;;;;20.10;39.40;;;;;;4984828;28;20024;-64
2022/11/03 07:57:01;;;;;;;;;;;20.10;39.40;;;;;;5007314;28;20023;-64
2022/11/03 07:59:28;;;;;;;;;;;20.10;39.40;;;;;;4976295;28;19932;-64
2022/11/03 08:01:55;;;;;;;;;;;20.10;39.30;;;;;;4996517;28;19926;-64
2022/11/03 08:04:23;;;;;;;;;;;20.10;39.30;;;;;;4993836;28;19965;-64
2022/11/03 08:06:50;;;;;;;;;;;20.10;39.30;;;;;;4972548;28;20272;-65
2022/11/03 08:09:18;;;;;;;;;;;20.10;39.20;;;;;;4982080;28;20017;-65
2022/11/03 08:11:44;;;;;;;;;;;20.10;39.20;;;;;;4975627;28;19934;-64
2022/11/03 08:14:11;;;;;;;;;;;20.10;39.20;;;;;;4975436;28;19958;-65
2022/11/03 08:16:38;;;;;;;;;;;20.10;39.20;;;;;;4981909;28;19930;-65
2022/11/03 08:19:05;;;;;;;;;;;20.10;38.90;;;;;;4993393;28;19929;-64
2022/11/03 08:21:31;;;;;;;;;;;20.20;39.70;;;;;;4995987;28;19926;-64
2022/11/03 08:23:58;;;;;;;;;;;20.10;39.40;;;;;;4974282;28;19953;-64
2022/11/03 08:26:28;;;;;;;;;;;20.10;39.60;;;;;;4976438;28;20293;-68
2022/11/03 08:28:55;;;;;;;;;;;20.00;39.70;;;;;;4974360;28;20383;-68
2022/11/03 08:31:21;;;;;;;;;;;20.00;40.00;;;;;;4992990;28;20008;-68
2022/11/03 08:33:48;;;;;;;;;;;20.00;39.90;;;;;;4975857;28;20012;-67
2022/11/03 08:36:15;;;;;;;;;;;20.00;39.90;;;;;;4989160;28;20016;-66
2022/11/03 08:38:41;;;;;;;;;;;20.00;39.90;;;;;;4977939;28;20003;-66
2022/11/03 08:41:08;;;;;;;;;;;20.00;39.90;;;;;;4973911;28;19996;-67
2022/11/03 08:43:37;;;;;;;;;;;20.00;39.80;;;;;;4972940;28;20302;-67
2022/11/03 08:46:04;;;;;;;;;;;20.10;39.90;;;;;;4973865;28;19973;-65
2022/11/03 08:48:31;;;;;;;;;;;20.10;39.80;;;;;;4985683;28;20020;-66
2022/11/03 08:50:58;;;;;;;;;;;20.10;39.80;;;;;;4995538;28;19929;-67
2022/11/03 08:53:25;;;;;;;;;;;20.10;39.90;;;;;;4992172;28;19965;-67
2022/11/03 08:55:52;;;;;;;;;;;20.20;40.00;;;;;;4987151;28;20360;-67
2022/11/03 08:58:19;;;;;;;;;;;20.20;40.00;;;;;;4993117;28;20021;-67
2022/11/03 09:00:51;;;;;;;;;;;20.20;40.00;;;;;;4975964;28;19937;-66
2022/11/03 09:03:18;;;;;;;;;;;20.20;40.00;;;;;;4991439;28;19980;-66
2022/11/03 09:05:44;;;;;;;;;;;20.20;40.10;;;;;;4971057;28;20372;-65
2022/11/03 09:08:11;;;;;;;;;;;20.20;40.00;;;;;;4989502;28;20045;-65
2022/11/03 09:10:39;;;;;;;;;;;20.20;40.00;;;;;;4974467;28;19936;-65
2022/11/03 09:13:07;;;;;;;;;;;20.30;40.00;;;;;;4974410;28;19925;-65
2022/11/03 09:15:36;;;;;;;;;;;20.30;40.10;;;;;;4993431;28;19948;-65
2022/11/03 09:18:04;;;;;;;;;;;20.30;40.10;;;;;;4997604;28;19945;-65
2022/11/03 09:20:31;;;;;;;;;;;20.30;40.20;;;;;;4993032;28;19926;-66
2022/11/03 09:22:58;;;;;;;;;;;20.30;40.20;;;;;;4975441;28;20351;-67
2022/11/03 09:25:24;;;;;;;;;;;20.30;40.20;;;;;;4991620;28;19925;-66
2022/11/03 09:27:51;;;;;;;;;;;20.30;40.30;;;;;;5001105;28;20012;-66
2022/11/03 09:30:18;;;;;;;;;;;20.40;40.40;;;;;;4990229;28;19926;-66
2022/11/03 09:32:45;;;;;;;;;;;20.30;40.40;;;;;;4991799;28;20029;-66
2022/11/03 09:35:13;;;;;;;;;;;20.30;40.40;;;;;;4998601;28;19926;-65
2022/11/03 09:37:40;;;;;;;;;;;20.40;40.50;;;;;;4971534;28;19969;-66
2022/11/03 09:40:08;;;;;;;;;;;20.40;40.60;;;;;;4975355;28;19961;-65
2022/11/03 09:42:35;;;;;;;;;;;20.40;40.60;;;;;;4969821;28;19930;-65
2022/11/03 09:45:02;;;;;;;;;;;20.40;40.60;;;;;;4974323;28;19925;-65
2022/11/03 09:47:29;;;;;;;;;;;20.40;40.70;;;;;;4978271;28;19980;-65
2022/11/03 09:49:56;;;;;;;;;;;20.40;40.70;;;;;;4971706;28;19930;-66
2022/11/03 09:52:24;;;;;;;;;;;20.40;40.70;;;;;;4981370;28;20036;-72
2022/11/03 09:54:51;;;;;;;;;;;20.40;40.70;;;;;;4988103;28;19980;-68
2022/11/03 09:57:18;;;;;;;;;;;20.40;40.70;;;;;;4993705;28;20585;-67
2022/11/03 09:59:48;;;;;;;;;;;20.40;40.70;;;;;;4992345;28;20032;-68
2022/11/03 10:02:17;;;;;;;;;;;20.40;40.70;;;;;;4992437;28;19926;-71
2022/11/03 10:04:44;;;;;;;;;;;20.50;40.80;;;;;;4989342;28;19926;-71
2022/11/03 10:07:10;;;;;;;;;;;20.50;40.80;;;;;;4977585;28;19950;-70
2022/11/03 10:09:40;;;;;;;;;;;20.50;40.80;;;;;;4995236;28;19926;-65
2022/11/03 10:12:08;;;;;;;;;;;20.50;40.80;;;;;;4981533;28;19926;-64
2022/11/03 10:14:36;;;;;;;;;;;20.40;40.80;;;;;;4992936;28;19953;-65
2022/11/03 10:17:03;;;;;;;;;;;20.50;40.90;;;;;;4975573;28;19926;-65
2022/11/03 10:19:29;;;;;;;;;;;20.50;41.00;;;;;;4971617;28;19937;-65
2022/11/03 10:21:56;;;;;;;;;;;20.50;41.10;;;;;;4976252;28;19968;-65
2022/11/03 10:24:23;;;;;;;;;;;20.50;41.20;;;;;;4975035;28;20025;-67
2022/11/03 10:26:51;;;;;;;;;;;20.50;41.20;;;;;;4991698;28;19984;-65
2022/11/03 10:29:21;;;;;;;;;;;20.50;41.30;;;;;;4989227;28;19926;-65
2022/11/03 10:31:50;;;;;;;;;;;20.50;41.30;;;;;;4973720;28;19929;-66
2022/11/03 10:34:23;;;;;;;;;;;20.50;41.30;;;;;;4981461;28;20017;-66
2022/11/03 10:36:50;;;;;;;;;;;20.60;41.50;;;;;;4967665;28;19933;-64
2022/11/03 10:39:22;;;;;;;;;;;20.60;41.50;;;;;;4971946;28;20009;-65
2022/11/03 10:41:56;;;;;;;;;;;20.50;41.40;;;;;;4984534;28;20084;-65
2022/11/03 10:44:23;;;;;;;;;;;20.60;41.60;;;;;;4984798;28;19930;-66
2022/11/03 10:46:56;;;;;;;;;;;20.60;41.60;;;;;;4988087;28;20037;-65
2022/11/03 10:49:23;;;;;;;;;;;20.60;41.60;;;;;;4974279;28;19930;-65
2022/11/03 10:51:51;;;;;;;;;;;20.60;41.50;;;;;;4985438;28;19936;-66
2022/11/03 10:54:18;;;;;;;;;;;20.60;41.60;;;;;;4975176;28;19925;-65
2022/11/03 10:56:45;;;;;;;;;;;20.60;41.60;;;;;;4973192;28;19976;-65
2022/11/03 10:59:14;;;;;;;;;;;20.60;41.60;;;;;;4988263;28;19954;-65
2022/11/03 11:01:41;;;;;;;;;;;20.60;41.60;;;;;;4967858;28;19937;-64
2022/11/03 11:04:08;;;;;;;;;;;20.60;41.70;;;;;;4987063;28;19930;-65
2022/11/03 11:06:34;;;;;;;;;;;20.60;41.70;;;;;;4975435;28;19932;-66
2022/11/03 11:09:01;;;;;;;;;;;20.60;41.70;;;;;;4973898;28;19965;-66
2022/11/03 11:11:28;;;;;;;;;;;20.60;41.60;;;;;;4974327;28;19953;-65
2022/11/03 11:14:10;;;;;;;;;;;20.60;41.60;;;;;;4970866;28;19937;-64
2022/11/03 11:16:51;;;;;;;;;;;20.60;41.60;;;;;;4976623;28;20020;-64
2022/11/03 11:19:18;;;;;;;;;;;20.70;41.80;;;;;;4974117;28;20049;-64
2022/11/03 11:22:06;;;;;;;;;;;20.70;41.70;;;;;;4989670;28;20872;-65
2022/11/03 11:24:51;;;;;;;;;;;20.60;41.70;;;;;;4973920;28;19930;-63
2022/11/03 11:27:46;;;;;;;;;;;20.60;41.60;;;;;;4988939;28;19985;-65
2022/11/03 11:30:27;;;;;;;;;;;20.60;41.60;;;;;;4988065;28;20265;-66
2022/11/03 11:33:00;;;;;;;;;;;20.60;41.70;;;;;;4986023;28;20017;-64
2022/11/03 11:35:45;;;;;;;;;;;20.70;41.80;;;;;;4991244;28;19940;-65
2022/11/03 11:38:31;;;;;;;;;;;20.60;41.70;;;;;;4989860;28;19933;-65
2022/11/03 11:40:57;;;;;;;;;;;20.70;41.70;;;;;;4974799;28;19977;-64
2022/11/03 11:43:25;;;;;;;;;;;20.60;41.60;;;;;;4993170;28;19929;-65
2022/11/03 11:46:19;;;;;;;;;;;20.60;41.60;;;;;;4979099;28;19926;-65
2022/11/03 11:48:47;;;;;;;;;;;20.70;41.70;;;;;;4966959;28;20076;-67
2022/11/03 11:51:13;;;;;;;;;;;20.70;41.70;;;;;;5006396;28;20383;-65
2022/11/03 11:53:40;;;;;;;;;;;20.70;41.80;;;;;;4988165;28;19929;-65
2022/11/03 11:56:08;;;;;;;;;;;20.70;41.80;;;;;;4981511;28;19957;-64
2022/11/03 11:58:38;;;;;;;;;;;20.70;41.90;;;;;;4984684;28;20010;-66
2022/11/03 12:01:05;;;;;;;;;;;20.70;41.90;;;;;;4978677;28;19926;-65
2022/11/03 12:03:33;;;;;;;;;;;20.70;41.90;;;;;;4994048;28;19933;-66
2022/11/03 12:06:01;;;;;;;;;;;20.70;41.90;;;;;;4999742;28;19929;-65
2022/11/03 12:08:29;;;;;;;;;;;20.70;41.90;;;;;;4986116;28;20372;-65
2022/11/03 12:10:56;;;;;;;;;;;20.70;41.90;;;;;;4989505;28;19921;-64
2022/11/03 12:13:51;;;;;;;;;;;20.70;41.90;;;;;;5005402;28;20015;-64
2022/11/03 12:16:27;;;;;;;;;;;20.70;42.00;;;;;;4944816;28;19932;-65
2022/11/03 12:18:55;;;;;;;;;;;20.70;42.00;;;;;;4998217;28;19934;-66
2022/11/03 12:21:40;;;;;;;;;;;20.70;42.10;;;;;;4980588;28;20152;-64
2022/11/03 12:24:22;;;;;;;;;;;20.70;42.10;;;;;;4992812;28;19948;-64
2022/11/03 12:26:50;;;;;;;;;;;20.70;42.20;;;;;;4996060;28;19926;-66
2022/11/03 12:29:16;;;;;;;;;;;20.80;42.30;;;;;;4993281;28;20409;-64
2022/11/03 12:31:43;;;;;;;;;;;20.80;42.30;;;;;;4971197;28;19933;-65
2022/11/03 12:34:10;;;;;;;;;;;20.80;42.40;;;;;;4997804;28;20333;-65
2022/11/03 12:36:36;;;;;;;;;;;20.80;42.40;;;;;;4993147;28;19988;-66
2022/11/03 12:39:03;;;;;;;;;;;20.80;42.40;;;;;;4985904;28;20024;-66
2022/11/03 12:41:30;;;;;;;;;;;20.80;42.40;;;;;;4986951;28;19926;-65
2022/11/03 12:43:58;;;;;;;;;;;20.80;42.40;;;;;;4995416;28;19926;-64
2022/11/03 12:46:25;;;;;;;;;;;20.80;42.40;;;;;;4974918;28;19962;-65
2022/11/03 12:48:51;;;;;;;;;;;20.80;42.40;;;;;;4992515;28;20016;-65
2022/11/03 12:51:19;;;;;;;;;;;20.80;42.40;;;;;;4990690;28;20616;-64
2022/11/03 12:53:45;;;;;;;;;;;20.80;42.40;;;;;;4979794;28;19993;-64
2022/11/03 12:56:12;;;;;;;;;;;20.80;42.50;;;;;;4976792;28;19934;-65
2022/11/03 12:58:39;;;;;;;;;;;20.80;42.50;;;;;;4992721;28;19926;-64
2022/11/03 13:01:07;;;;;;;;;;;20.80;42.50;;;;;;4981017;28;20012;-64
2022/11/03 13:03:34;;;;;;;;;;;20.80;42.50;;;;;;4988722;28;19955;-65
2022/11/03 13:06:03;;;;;;;;;;;20.80;42.50;;;;;;4976991;28;19929;-64
2022/11/03 13:08:32;;;;;;;;;;;20.80;42.50;;;;;;4993166;28;19926;-64
2022/11/03 13:11:01;;;;;;;;;;;20.80;42.50;;;;;;4985670;28;20964;-65
2022/11/03 13:13:28;;;;;;;;;;;20.80;42.50;;;;;;4990025;28;19933;-65
2022/11/03 13:15:54;;;;;;;;;;;20.80;42.50;;;;;;4992272;28;19965;-65
2022/11/03 13:18:22;;;;;;;;;;;20.80;42.50;;;;;;4972618;28;19954;-64
2022/11/03 13:20:49;;;;;;;;;;;20.80;42.60;;;;;;4982765;28;20030;-65
2022/11/03 13:23:16;;;;;;;;;;;20.80;42.50;;;;;;4975333;28;20025;-65
2022/11/03 13:25:45;;;;;;;;;;;20.80;42.50;;;;;;4988108;28;19981;-64
2022/11/03 13:28:11;;;;;;;;;;;20.80;42.50;;;;;;4993378;28;20001;-66
2022/11/03 13:30:39;;;;;;;;;;;20.80;42.50;;;;;;4975804;28;19929;-66
2022/11/03 13:33:06;;;;;;;;;;;20.80;42.50;;;;;;4976549;28;19926;-64
2022/11/03 13:35:34;;;;;;;;;;;20.80;42.50;;;;;;4979595;28;19925;-65
2022/11/03 13:38:01;;;;;;;;;;;20.80;42.50;;;;;;4979293;28;20479;-64
2022/11/03 13:40:28;;;;;;;;;;;20.80;42.50;;;;;;4992935;28;20016;-65
2022/11/03 13:42:54;;;;;;;;;;;20.80;42.50;;;;;;4992497;28;19952;-64
2022/11/03 13:45:22;;;;;;;;;;;20.80;42.50;;;;;;4988791;28;20008;-66
2022/11/03 13:47:49;;;;;;;;;;;20.80;42.50;;;;;;4977338;28;20343;-64
2022/11/03 13:50:16;;;;;;;;;;;20.90;42.60;;;;;;4989845;28;20019;-64
2022/11/03 13:52:44;;;;;;;;;;;20.80;42.60;;;;;;4974624;28;19930;-63
2022/11/03 13:55:11;;;;;;;;;;;20.80;42.50;;;;;;4982999;28;20016;-65
2022/11/03 13:57:37;;;;;;;;;;;20.80;42.50;;;;;;4984671;28;19933;-64
2022/11/03 14:00:04;;;;;;;;;;;20.80;42.50;;;;;;4974359;28;19941;-65
2022/11/03 14:02:31;;;;;;;;;;;20.90;42.60;;;;;;4989760;28;19925;-65
2022/11/03 14:04:58;;;;;;;;;;;20.80;42.50;;;;;;4998443;28;19930;-64
2022/11/03 14:07:25;;;;;;;;;;;20.80;42.50;;;;;;4988550;28;19934;-65
2022/11/03 14:09:53;;;;;;;;;;;20.80;42.60;;;;;;4985206;28;19961;-63
2022/11/03 14:12:31;;;;;;;;;;;20.80;42.50;;;;;;4967588;28;19930;-64
2022/11/03 14:14:58;;;;;;;;;;;20.80;42.50;;;;;;4993876;28;19934;-67
2022/11/03 14:17:25;;;;;;;;;;;20.80;42.50;;;;;;4983727;28;19972;-63
2022/11/03 14:19:52;;;;;;;;;;;20.80;42.60;;;;;;4978717;28;19925;-61
2022/11/03 14:22:19;;;;;;;;;;;20.80;42.60;;;;;;4994861;28;19938;-63
2022/11/03 14:24:45;;;;;;;;;;;20.80;42.60;;;;;;4999074;28;19930;-62
2022/11/03 14:27:14;;;;;;;;;;;20.80;42.50;;;;;;4992627;28;19941;-63
2022/11/03 14:29:42;;;;;;;;;;;20.80;42.60;;;;;;4995524;28;19956;-61
2022/11/03 14:32:08;;;;;;;;;;;20.80;42.60;;;;;;4992148;28;19965;-63
2022/11/03 14:34:35;;;;;;;;;;;20.80;42.50;;;;;;4993896;28;19934;-62
2022/11/03 14:37:02;;;;;;;;;;;20.80;42.50;;;;;;4974400;28;19972;-62
2022/11/03 14:39:29;;;;;;;;;;;20.80;42.60;;;;;;5005931;28;20384;-62